Latest Weather Observations for Khancoban

IDN60801

Issued at 2:04 pm EST Monday 27 April 2015 (issued every 30 minutes, with the page automatically refreshed every 10 minutes)

About weather observations | Map of weather stations | Latest weather observations for NSW | Other Formats
Station Details ID: 072162 Name: KHANCOBAN AWS Lat: -36.23 Lon: 148.14 Height: 339.3 m
Data from the previous 72 hours. | See also: Recent months at Khancoban
Date/Time
EST
Temp
°C
App
Temp
°C
Dew
Point
Rel
Hum
%
Delta-T
°C
Wind Press
QNH
hPa
Press
MSL
hPa
Rain
since 9 am
mm
Dir
 
Spd
km/h
Gust
km/h
Spd
kts
Gust
kts
27/02:00pm 16.3 14.0 5.9 50 5.1 WNW 7 15 4 8 1020.1 1019.7 0.2
27/01:30pm 15.4 11.7 6.4 55 4.4 N 15 19 8 10 1019.9 1019.5 0.2
27/01:00pm 15.1 11.4 6.4 56 4.3 NW 15 20 8 11 1020.0 1019.6 0.2
27/12:30pm 14.4 10.6 5.7 56 4.2 WNW 15 17 8 9 1020.4 1020.1 0.0
27/12:00pm 14.2 11.7 4.8 53 4.4 W 7 15 4 8 1020.8 1020.5 0.0
27/11:30am 13.2 10.8 5.4 59 3.7 NW 7 11 4 6 1021.2 1020.9 0.0
27/11:00am 12.3 10.8 6.6 68 2.8 ENE 4 7 2 4 1021.6 1021.2 0.0
27/10:30am 10.5 8.4 5.9 73 2.2 ESE 6 9 3 5 1022.0 1021.6 0.0
27/10:00am 9.3 7.6 5.9 79 1.6 ENE 4 7 2 4 1022.0 1021.6 0.0
27/09:30am 7.8 6.7 4.9 82 1.3 CALM 0 0 0 0 1022.0 1021.6 0.0
27/09:00am 6.8 5.5 6.1 95 0.3 W 2 7 1 4 1022.0 1021.6 0.0
27/08:30am 6.2 5.1 5.2 93 0.4 CALM 0 0 0 0 1021.8 1021.4 0.0
27/08:00am 5.5 4.5 5.5 100 0.0 CALM 0 4 0 2 1021.5 1021.1 0.0
27/07:30am 4.1 2.8 4.1 100 0.0 CALM 0 0 0 0 1021.1 1020.8 0.0
27/07:00am 4.0 2.3 4.0 100 0.0 NNE 2 9 1 5 1020.6 1020.3 0.0
27/06:30am 4.3 3.0 4.2 99 0.0 CALM 0 6 0 3 1020.4 1020.1 0.0
27/06:00am 4.9 3.8 4.9 100 0.0 CALM 0 0 0 0 1020.1 1019.7 0.0
27/05:30am 4.9 2.4 4.9 100 0.0 N 7 9 4 5 1019.9 1019.5 0.0
27/05:00am 4.4 3.1 4.3 99 0.0 CALM 0 0 0 0 1019.6 1019.2 0.0
27/04:30am 4.6 2.3 4.6 100 0.0 NE 6 7 3 4 1019.4 1019.0 0.0
27/04:00am 4.2 2.2 4.2 100 0.0 SSW 4 9 2 5 1019.3 1018.9 0.0
27/03:30am 4.4 2.4 4.4 100 0.0 SSE 4 9 2 5 1019.0 1018.6 0.0
27/03:00am 4.1 2.4 4.0 99 0.0 S 2 7 1 4 1019.0 1018.6 0.0
27/02:30am 4.7 3.1 4.6 99 0.0 SSE 2 9 1 5 1018.8 1018.4 0.0
27/02:00am 4.6 3.4 4.5 99 0.0 CALM 0 0 0 0 1018.8 1018.4 0.0
27/01:30am 5.4 3.2 5.4 100 0.0 N 6 7 3 4 1018.8 1018.4 0.0
27/01:00am 5.0 3.7 4.1 94 0.4 CALM 0 0 0 0 1018.7 1018.3 0.0
27/12:30am 6.0 5.1 5.9 99 0.0 CALM 0 0 0 0 1018.7 1018.3 0.0
27/12:00am 6.3 4.6 5.9 97 0.2 NNE 4 6 2 3 1018.9 1018.5 0.0
 
Date/Time
EST
Temp
°C
App
Temp
°C
Dew
Point
Rel
Hum
%
Delta-T
°C
Wind Press
QNH
hPa
Press
MSL
hPa
Rain
since 9 am
mm
Dir
 
Spd
km/h
Gust
km/h
Spd
kts
Gust
kts
26/11:30pm 7.9 5.8 5.9 87 0.9 S 6 7 3 4 1018.7 1018.3 0.0
26/11:00pm 8.0 7.2 6.5 90 0.7 CALM 0 7 0 4 1018.5 1018.1 0.0
26/10:30pm 9.0 8.4 7.6 91 0.7 CALM 0 0 0 0 1018.4 1018.0 0.0
26/10:00pm 9.3 8.9 8.4 94 0.4 CALM 0 0 0 0 1018.2 1017.9 0.0
26/09:30pm 9.7 9.3 8.1 90 0.8 CALM 0 6 0 3 1018.0 1017.7 0.0
26/09:00pm 9.7 9.1 7.6 87 1.0 CALM 0 2 0 1 1017.8 1017.5 0.0
26/08:30pm 9.9 9.4 8.0 88 0.9 CALM 0 0 0 0 1017.4 1017.0 0.0
26/08:00pm 9.9 9.2 6.8 81 1.5 CALM 0 0 0 0 1017.2 1016.8 0.0
26/07:30pm 9.4 6.9 6.7 83 1.3 SSE 9 11 5 6 1016.9 1016.5 0.0
26/07:00pm 10.0 8.7 6.2 77 1.8 NNE 2 9 1 5 1016.6 1016.2 0.0
26/06:30pm 10.8 9.1 7.5 80 1.6 N 6 7 3 4 1016.4 1016.0 0.0
26/06:00pm 12.8 11.0 5.2 60 3.6 SSE 4 11 2 6 1015.8 1015.4 0.0
26/05:30pm 12.7 12.1 8.8 77 2.0 S 2 13 1 7 1015.4 1015.0 0.0
26/05:00pm 13.5 11.9 7.9 69 2.8 ESE 6 9 3 5 1015.0 1014.6 0.0
26/04:30pm 15.4 15.0 9.7 69 3.0 S 2 7 1 4 1014.7 1014.3 0.0
26/04:00pm 15.4 14.2 10.2 71 2.8 SSW 7 9 4 5 1014.5 1014.1 0.0
26/03:30pm 16.5 15.6 10.6 68 3.2 SW 6 11 3 6 1014.1 1013.7 0.0
26/03:00pm 15.3 14.5 10.9 75 2.4 S 6 9 3 5 1014.1 1013.7 0.0
26/02:30pm 15.0 14.1 10.8 76 2.3 W 6 9 3 5 1013.9 1013.5 0.0
26/02:00pm 14.7 14.5 10.3 75 2.3 NNE 2 6 1 3 1013.6 1013.2 0.0
26/01:30pm 14.1 13.9 10.5 79 1.9 W 2 7 1 4 1013.9 1013.5 0.0
26/01:00pm 13.9 12.8 10.1 78 2.0 WNW 6 9 3 5 1013.8 1013.4 0.0
26/12:30pm 13.4 12.3 10.6 83 1.5 WSW 7 11 4 6 1013.8 1013.4 0.0
26/12:00pm 13.1 12.4 9.9 81 1.7 WSW 4 7 2 4 1013.9 1013.5 0.0
26/11:30am 12.3 11.4 10.7 90 0.8 SE 6 9 3 5 1014.1 1013.7 0.0
26/11:00am 11.7 10.7 10.3 91 0.7 NW 6 9 3 5 1014.1 1013.7 0.0
26/10:30am 10.9 9.9 10.3 96 0.3 NW 6 13 3 7 1014.0 1013.6 0.0
26/10:00am 10.9 10.3 9.0 88 1.0 WNW 2 7 1 4 1013.8 1013.4 0.0
26/09:30am 9.5 9.4 9.4 99 0.1 CALM 0 0 0 0 1013.7 1013.3 0.0
26/09:00am 8.7 7.7 8.7 100 0.0 W 4 7 2 4 1013.8 1013.4 17.4
26/08:30am 8.4 8.0 8.4 100 0.0 CALM 0 0 0 0 1013.6 1013.2 17.4
26/08:00am 7.8 7.3 7.8 100 0.0 CALM 0 0 0 0 1013.5 1013.1 17.4
26/07:30am 7.5 6.9 7.5 100 0.0 CALM 0 2 0 1 1013.2 1012.8 17.4
26/07:00am 7.3 5.5 7.3 100 0.0 SSW 6 9 3 5 1012.6 1012.1 17.4
26/06:30am 7.3 5.3 7.3 100 0.0 W 7 9 4 5 1012.3 1011.8 17.4
26/06:00am 7.1 6.4 7.1 100 0.0 CALM 0 0 0 0 1011.9 1011.5 17.4
26/05:30am 6.8 6.1 6.8 100 0.0 CALM 0 0 0 0 1011.8 1011.4 17.4
26/05:00am 6.4 5.6 6.4 100 0.0 CALM 0 0 0 0 1011.4 1011.0 17.4
26/04:30am 6.7 5.9 6.7 100 0.0 CALM 0 0 0 0 1011.3 1010.9 17.4
26/04:00am 6.6 5.8 6.6 100 0.0 CALM 0 0 0 0 1011.0 1010.6 17.4
26/03:30am 6.1 5.2 6.1 100 0.0 CALM 0 0 0 0 1010.8 1010.4 17.4
26/03:00am 6.3 5.5 6.3 100 0.0 CALM 0 0 0 0 1010.5 1010.1 17.4
26/02:30am 6.6 5.8 6.6 100 0.0 CALM 0 0 0 0 1010.5 1010.1 17.4
26/02:00am 6.7 5.9 6.7 100 0.0 CALM 0 0 0 0 1010.4 1010.0 17.4
26/01:30am 6.5 5.7 6.5 100 0.0 CALM 0 0 0 0 1010.6 1010.2 17.4
26/01:00am 6.8 6.1 6.8 100 0.0 CALM 0 0 0 0 1010.5 1010.1 17.4
26/12:30am 6.5 5.3 6.5 100 0.0 NE 2 6 1 3 1010.4 1010.0 17.4
26/12:00am 6.5 5.7 6.5 100 0.0 CALM 0 0 0 0 1010.4 1010.0 17.4
 
Date/Time
EST
Temp
°C
App
Temp
°C
Dew
Point
Rel
Hum
%
Delta-T
°C
Wind Press
QNH
hPa
Press
MSL
hPa
Rain
since 9 am
mm
Dir
 
Spd
km/h
Gust
km/h
Spd
kts
Gust
kts
25/11:30pm 6.8 6.1 6.8 100 0.0 CALM 0 0 0 0 1010.6 1010.2 17.4
25/11:00pm 6.7 5.9 6.7 100 0.0 CALM 0 0 0 0 1010.8 1010.4 17.4
25/10:30pm 6.9 6.2 6.9 100 0.0 CALM 0 0 0 0 1010.9 1010.5 17.4
25/10:00pm 7.0 5.9 7.0 100 0.0 NE 2 7 1 4 1011.0 1010.6 17.4
25/09:30pm 6.8 6.1 6.8 100 0.0 CALM 0 0 0 0 1010.8 1010.4 17.4
25/09:00pm 7.4 6.8 7.4 100 0.0 CALM 0 0 0 0 1010.7 1010.3 17.4
25/08:30pm 8.1 7.7 8.1 100 0.0 CALM 0 0 0 0 1010.4 1010.0 17.4
25/08:00pm 7.7 7.2 7.7 100 0.0 CALM 0 0 0 0 1010.4 1010.0 17.4
25/07:30pm 8.3 7.5 8.3 100 0.0 S 2 6 1 3 1010.1 1009.6 17.4
25/07:00pm 8.3 7.5 8.3 100 0.0 S 2 6 1 3 1009.6 1009.1 17.4
25/06:30pm 8.8 8.2 8.8 100 0.0 SE 2 9 1 5 1009.1 1008.6 17.4
25/06:00pm 9.2 7.9 9.2 100 0.0 E 6 7 3 4 1008.7 1008.3 17.4
25/05:30pm 9.5 8.3 9.5 100 0.0 NNW 6 9 3 5 1008.3 1007.9 17.4
25/05:00pm 10.3 10.4 10.0 98 0.2 CALM 0 4 0 2 1007.9 1007.5 17.4
25/04:30pm 10.5 7.3 10.0 97 0.3 SSW 17 24 9 13 1007.7 1007.2 17.4
25/04:00pm 10.4 8.8 10.1 98 0.2 S 9 15 5 8 1008.4 1008.0 17.0
25/03:30pm 10.4 7.6 9.9 97 0.3 ESE 15 20 8 11 1009.1 1008.6 15.0
25/03:00pm 11.5 7.9 8.4 81 1.6 WSW 17 24 9 13 1009.3 1008.8 5.8
25/02:30pm 13.0 12.4 11.6 91 0.8 - 6 13 3 7 1008.6 1008.2 2.6
25/02:00pm 13.4 13.2 11.8 90 0.9 ESE 4 9 2 5 1007.7 1007.2 2.6
25/01:30pm 12.9 11.8 11.8 93 0.6 SSE 9 11 5 6 1007.7 1007.2 2.6
25/01:00pm 12.4 11.4 12.2 99 0.1 S 9 15 5 8 1007.7 1007.2 2.6
25/12:30pm 12.4 11.7 12.1 98 0.2 NNE 7 13 4 7 1007.7 1007.2 2.4
25/12:00pm 12.6 12.1 12.0 96 0.3 WNW 6 9 3 5 1007.8 1007.4 2.4
25/11:30am 11.6 8.3 11.6 100 0.0 SW 20 32 11 17 1008.1 1007.7 2.4
25/11:00am 11.1 9.8 11.1 100 0.0 SSW 9 17 5 9 1009.5 1009.0 1.8
25/10:30am 10.9 10.1 10.9 100 0.0 SSE 6 9 3 5 1009.6 1009.1 1.4
25/10:00am 11.2 10.8 11.2 100 0.0 WNW 4 11 2 6 1009.8 1009.3 0.6
25/09:30am 11.1 9.8 11.1 100 0.0 NNE 9 11 5 6 1009.7 1009.2 0.0
25/09:00am 10.9 10.8 10.9 100 0.0 SSE 2 7 1 4 1009.4 1008.9 7.0
25/08:30am 10.2 8.2 10.2 100 0.0 SSW 11 17 6 9 1009.3 1008.8 7.0
25/08:00am 9.9 8.6 9.9 100 0.0 NW 7 11 4 6 1009.4 1008.9 6.4
25/07:30am 9.2 8.3 9.2 100 0.0 NW 4 7 2 4 1009.6 1009.1 6.0
25/07:00am 9.2 9.0 9.2 100 0.0 CALM 0 0 0 0 1008.4 1008.0 6.0
25/06:30am 8.4 7.7 8.4 100 0.0 S 2 9 1 5 1007.7 1007.2 5.8
25/06:00am 8.3 7.9 8.3 100 0.0 CALM 0 0 0 0 1007.4 1006.9 5.8
25/05:30am 8.6 7.9 8.6 100 0.0 SSW 2 7 1 4 1007.2 1006.7 5.8
25/05:00am 9.0 8.4 9.0 100 0.0 SE 2 6 1 3 1007.3 1006.8 5.8
25/04:30am 9.2 7.7 9.2 100 0.0 NNE 7 9 4 5 1007.5 1007.0 5.8
25/04:00am 9.9 9.9 9.9 100 0.0 CALM 0 0 0 0 1007.7 1007.2 5.8
25/03:30am 9.8 9.8 9.8 100 0.0 CALM 0 0 0 0 1007.9 1007.5 5.8
25/03:00am 10.2 10.3 10.2 100 0.0 CALM 0 0 0 0 1007.9 1007.5 5.8
25/02:30am 10.7 10.2 10.7 100 0.0 E 4 6 2 3 1008.0 1007.6 5.8
25/02:00am 10.9 11.2 10.9 100 0.0 CALM 0 0 0 0 1008.1 1007.7 5.8
25/01:30am 11.1 11.5 11.1 100 0.0 CALM 0 0 0 0 1008.0 1007.6 5.8
25/01:00am 11.1 11.5 11.1 100 0.0 CALM 0 0 0 0 1008.1 1007.7 5.8
25/12:30am 11.9 12.5 11.9 100 0.0 CALM 0 0 0 0 1008.2 1007.8 5.8
25/12:00am 11.9 12.5 11.9 100 0.0 CALM 0 6 0 3 1008.3 1007.9 5.8
 
Date/Time
EST
Temp
°C
App
Temp
°C
Dew
Point
Rel
Hum
%
Delta-T
°C
Wind Press
QNH
hPa
Press
MSL
hPa
Rain
since 9 am
mm
Dir
 
Spd
km/h
Gust
km/h
Spd
kts
Gust
kts
24/11:30pm 12.0 12.6 12.0 100 0.0 CALM 0 0 0 0 1008.2 1007.8 5.8
24/11:00pm 12.6 13.4 12.6 100 0.0 CALM 0 0 0 0 1008.3 1007.9 5.8
24/10:30pm 12.9 13.8 12.9 100 0.0 CALM 0 0 0 0 1008.4 1008.0 5.8
24/10:00pm 13.0 13.9 13.0 100 0.0 CALM 0 0 0 0 1008.3 1007.9 5.8
24/09:30pm 13.2 14.2 13.2 100 0.0 CALM 0 0 0 0 1008.1 1007.7 5.8
24/09:00pm 13.2 14.2 13.2 100 0.0 CALM 0 0 0 0 1008.1 1007.7 5.8
24/08:30pm 13.2 14.2 13.2 100 0.0 CALM 0 0 0 0 1007.9 1007.5 5.8
24/08:00pm 13.7 14.1 13.7 100 0.0 NE 4 7 2 4 1007.6 1007.1 5.8
24/07:30pm 13.6 14.0 13.6 100 0.0 NW 4 9 2 5 1007.5 1007.0 5.8
24/07:00pm 13.8 15.0 13.8 100 0.0 CALM 0 0 0 0 1007.2 1006.7 5.8
24/06:30pm 14.1 15.2 13.6 97 0.3 CALM 0 0 0 0 1007.0 1006.5 5.8
24/06:00pm 14.5 15.5 14.2 98 0.2 NNE 2 6 1 3 1006.9 1006.4 5.8
24/05:30pm 15.1 16.5 14.5 96 0.3 CALM 0 0 0 0 1006.6 1006.1 5.8
24/05:00pm 15.3 15.3 14.2 93 0.6 NNE 7 9 4 5 1006.4 1005.9 5.8
24/04:30pm 15.3 15.0 14.5 95 0.5 N 9 11 5 6 1006.2 1005.7 5.8
24/04:00pm 16.3 15.9 13.0 81 1.9 NNE 7 11 4 6 1006.0 1005.5 5.8
24/03:30pm 16.2 15.7 13.7 85 1.4 NE 9 15 5 8 1006.1 1005.6 5.8
24/03:00pm 16.2 15.1 13.1 82 1.8 NE 11 13 6 7 1006.1 1005.6 5.8
24/02:30pm 15.8 16.3 15.0 95 0.5 NE 6 9 3 5 1006.4 1005.9 5.8

Other Formats:

Comma delimited format used in spreadsheet applications
http://www.bom.gov.au/fwo/IDN60801/IDN60801.94919.axf

JavaScript Object Notation format (JSON) in row-major order
http://www.bom.gov.au/fwo/IDN60801/IDN60801.94919.json